Time;durP1;ratioP1;P1;durP2;ratioP2;P2;SDS_P1;SDS_P2;PMS_P1;PMS_P2;Temp;Humidity;BMP_temperature;BMP_pressure;BME280_temperature;BME280_humidity;BME280_pressure;Samples;Min_cycle;Max_cycle;Signal;HPM_P1;HPM_P2
2022/12/27 00:00:04;;;;;;;15.18;9.60;;;;;;;;;;5051127;28;20110;-82
2022/12/27 00:02:39;;;;;;;15.88;9.73;;;;;;;;;;5053441;28;20500;-82
2022/12/27 00:05:04;;;;;;;16.33;9.70;;;;;;;;;;5035140;28;20031;-81
2022/12/27 00:07:30;;;;;;;15.52;10.40;;;;;;;;;;5036257;28;20468;-81
2022/12/27 00:09:57;;;;;;;15.77;9.73;;;;;;;;;;5033330;28;20485;-81
2022/12/27 00:12:22;;;;;;;16.27;9.57;;;;;;;;;;5051106;28;20150;-81
2022/12/27 00:17:32;;;;;;;13.60;8.60;;;;;;;;;;5038810;28;20098;-82
2022/12/27 00:19:57;;;;;;;15.45;9.45;;;;;;;;;;5036621;28;20037;-80
2022/12/27 00:22:23;;;;;;;17.00;9.25;;;;;;;;;;5043107;28;20037;-80
2022/12/27 00:24:49;;;;;;;15.98;9.35;;;;;;;;;;5041944;28;20056;-81
2022/12/27 00:27:15;;;;;;;17.23;9.60;;;;;;;;;;5023373;28;20065;-80
2022/12/27 00:29:40;;;;;;;14.95;9.35;;;;;;;;;;5017493;28;20056;-81
2022/12/27 00:32:06;;;;;;;16.48;8.32;;;;;;;;;;5039631;28;20446;-81
2022/12/27 00:34:31;;;;;;;14.63;8.57;;;;;;;;;;5054508;28;20037;-81
2022/12/27 00:36:57;;;;;;;16.13;9.40;;;;;;;;;;5039546;28;20033;-82
2022/12/27 00:39:22;;;;;;;15.63;9.38;;;;;;;;;;5054065;28;20029;-81
2022/12/27 00:41:47;;;;;;;15.65;8.82;;;;;;;;;;5060620;28;20376;-81
2022/12/27 00:44:13;;;;;;;14.02;7.95;;;;;;;;;;5060590;28;20051;-81
2022/12/27 00:49:22;;;;;;;13.73;8.32;;;;;;;;;;5058116;28;20086;-81
2022/12/27 00:51:48;;;;;;;14.60;8.98;;;;;;;;;;5044403;28;20396;-81
2022/12/27 00:56:57;;;;;;;13.48;8.50;;;;;;;;;;5055299;28;20129;-81
2022/12/27 00:59:23;;;;;;;14.02;8.38;;;;;;;;;;5060486;28;20566;-81
2022/12/27 01:01:48;;;;;;;13.77;8.68;;;;;;;;;;5056252;28;20053;-81
2022/12/27 01:04:14;;;;;;;12.75;8.30;;;;;;;;;;5015639;28;20025;-81
2022/12/27 01:06:40;;;;;;;18.00;9.70;;;;;;;;;;5053851;28;20409;-81
2022/12/27 01:09:05;;;;;;;15.63;8.90;;;;;;;;;;5032660;28;20055;-81
2022/12/27 01:11:31;;;;;;;14.55;9.55;;;;;;;;;;5050526;28;20034;-81
2022/12/27 01:16:44;;;;;;;17.77;9.27;;;;;;;;;;5028761;28;20147;-81
2022/12/27 01:19:09;;;;;;;17.25;9.82;;;;;;;;;;5020527;28;20131;-81
2022/12/27 01:21:35;;;;;;;13.65;9.75;;;;;;;;;;5021689;28;20045;-82
2022/12/27 01:24:00;;;;;;;15.35;9.50;;;;;;;;;;5036743;28;20399;-81
2022/12/27 01:26:26;;;;;;;16.63;9.95;;;;;;;;;;5054284;28;20557;-81
2022/12/27 01:28:52;;;;;;;17.05;10.80;;;;;;;;;;5020223;28;20075;-81
2022/12/27 01:31:18;;;;;;;18.08;11.20;;;;;;;;;;5036266;28;20040;-81
2022/12/27 01:36:28;;;;;;;18.10;10.45;;;;;;;;;;5054288;28;20044;-81
2022/12/27 01:38:55;;;;;;;16.50;10.75;;;;;;;;;;5031136;28;20032;-81
2022/12/27 01:44:26;;;;;;;17.95;11.20;;;;;;;;;;5043818;28;20041;-81
2022/12/27 01:46:52;;;;;;;19.30;11.30;;;;;;;;;;5054350;28;20492;-81
2022/12/27 01:49:18;;;;;;;;;;;;;;;;;;5053922;28;20020;-81
2022/12/27 01:51:43;;;;;;;22.20;12.27;;;;;;;;;;5055172;28;19913;-81
2022/12/27 01:54:08;;;;;;;19.88;12.60;;;;;;;;;;5039925;28;20040;-81
2022/12/27 01:56:34;;;;;;;18.92;11.73;;;;;;;;;;5054878;28;20033;-81
2022/12/27 01:59:00;;;;;;;19.85;12.20;;;;;;;;;;5020220;28;20488;-81
2022/12/27 02:01:30;;;;;;;19.08;12.15;;;;;;;;;;5053974;28;20099;-82
2022/12/27 02:03:56;;;;;;;20.30;11.70;;;;;;;;;;5021701;28;20849;-82
2022/12/27 02:06:21;;;;;;;21.35;13.13;;;;;;;;;;5022189;28;20041;-81
2022/12/27 02:08:53;;;;;;;25.67;13.23;;;;;;;;;;5044276;28;20438;-81
2022/12/27 02:11:49;;;;;;;22.05;12.75;;;;;;;;;;5037356;28;20086;-81
2022/12/27 02:14:05;;;;;;;21.80;12.82;;;;;;;;;;5040650;28;20041;-81
2022/12/27 02:16:30;;;;;;;22.17;13.07;;;;;;;;;;5037075;28;20417;-81
2022/12/27 02:18:56;;;;;;;24.92;12.75;;;;;;;;;;5054738;28;20048;-82
2022/12/27 02:24:12;;;;;;;23.70;13.73;;;;;;;;;;5038781;28;20492;-82
2022/12/27 02:26:46;;;;;;;24.73;14.13;;;;;;;;;;5054915;28;20109;-82
2022/12/27 02:29:12;;;;;;;23.05;13.68;;;;;;;;;;5056169;28;20033;-81
2022/12/27 02:31:40;;;;;;;20.83;13.05;;;;;;;;;;5056456;28;20066;-81
2022/12/27 02:36:57;;;;;;;22.20;13.75;;;;;;;;;;5028618;28;20044;-82
2022/12/27 02:39:23;;;;;;;23.08;14.15;;;;;;;;;;5039047;28;20029;-82
2022/12/27 03:04:11;;;;;;;22.73;13.07;;;;;;;;;;5052353;28;20019;-80
2022/12/27 03:06:40;;;;;;;22.27;13.55;;;;;;;;;;5052567;28;20078;-81
2022/12/27 03:09:08;;;;;;;25.05;14.57;;;;;;;;;;5034019;28;20025;-80
2022/12/27 03:17:13;;;;;;;22.67;12.43;;;;;;;;;;5038116;28;20054;-81
2022/12/27 03:25:26;;;;;;;23.20;12.75;;;;;;;;;;5037827;28;20028;-85
2022/12/27 03:33:22;;;;;;;19.15;11.48;;;;;;;;;;5036510;28;20044;-82
2022/12/27 03:38:01;;;;;;;20.95;11.70;;;;;;;;;;5036725;28;20040;-82
2022/12/27 03:38:35;;;;;;;22.83;12.20;;;;;;;;;;5049401;28;20052;-82
2022/12/27 03:43:46;;;;;;;20.70;12.23;;;;;;;;;;5039173;28;20040;-81
2022/12/27 03:46:33;;;;;;;19.73;11.80;;;;;;;;;;5036348;28;20488;-83
2022/12/27 03:48:58;;;;;;;17.30;10.02;;;;;;;;;;5053313;28;20033;-81
2022/12/27 03:51:24;;;;;;;19.85;11.50;;;;;;;;;;5058306;28;20422;-82
2022/12/27 03:53:50;;;;;;;;;;;;;;;;;;5039209;28;20040;-81
2022/12/27 03:56:15;;;;;;;20.85;11.10;;;;;;;;;;5051255;28;19916;-82
2022/12/27 03:58:41;;;;;;;17.17;10.55;;;;;;;;;;5035425;28;20397;-82
2022/12/27 04:01:06;;;;;;;21.20;10.88;;;;;;;;;;5033450;28;20039;-81
2022/12/27 04:03:32;;;;;;;16.08;10.63;;;;;;;;;;5052606;28;20067;-82
2022/12/27 04:05:57;;;;;;;16.77;10.70;;;;;;;;;;5056761;28;20028;-82
2022/12/27 04:36:08;;;;;;;15.95;9.82;;;;;;;;;;5042616;28;20025;-81
2022/12/27 04:38:33;;;;;;;15.98;10.30;;;;;;;;;;5036173;28;20396;-82
2022/12/27 04:54:58;;;;;;;15.82;9.65;;;;;;;;;;5045078;28;20514;-83
2022/12/27 04:57:24;;;;;;;15.50;9.88;;;;;;;;;;5043109;28;20070;-82
2022/12/27 05:02:33;;;;;;;15.32;9.55;;;;;;;;;;5057395;28;20029;-83
2022/12/27 05:15:55;;;;;;;15.05;10.20;;;;;;;;;;5036612;28;20476;-82
2022/12/27 05:18:21;;;;;;;16.10;10.13;;;;;;;;;;5039863;28;20071;-82
2022/12/27 05:20:46;;;;;;;16.33;10.20;;;;;;;;;;5056251;28;20048;-81
2022/12/27 05:25:56;;;;;;;15.02;9.93;;;;;;;;;;5039474;28;20107;-81
2022/12/27 05:28:21;;;;;;;16.67;10.73;;;;;;;;;;5038801;28;20120;-83
2022/12/27 05:30:47;;;;;;;14.90;9.27;;;;;;;;;;5047557;28;20105;-81
2022/12/27 05:35:57;;;;;;;14.65;9.05;;;;;;;;;;5043737;28;20419;-81
2022/12/27 05:38:22;;;;;;;14.00;9.20;;;;;;;;;;5037575;28;20036;-82
2022/12/27 05:40:48;;;;;;;18.08;9.82;;;;;;;;;;5043337;28;20491;-82
2022/12/27 05:43:13;;;;;;;14.93;9.98;;;;;;;;;;5031422;28;20495;-82
2022/12/27 05:45:39;;;;;;;13.98;9.15;;;;;;;;;;5064525;28;20119;-82
2022/12/27 05:48:04;;;;;;;13.73;9.35;;;;;;;;;;5049743;28;20028;-81
2022/12/27 05:50:30;;;;;;;14.57;9.68;;;;;;;;;;5049410;28;20566;-82
2022/12/27 05:53:08;;;;;;;14.68;10.38;;;;;;;;;;5033913;28;20510;-82
2022/12/27 05:55:33;;;;;;;16.15;9.85;;;;;;;;;;5049927;28;20028;-82
2022/12/27 05:57:59;;;;;;;20.58;9.98;;;;;;;;;;5031866;28;20044;-83
2022/12/27 06:00:24;;;;;;;13.13;8.80;;;;;;;;;;5050679;28;20080;-84
2022/12/27 06:02:50;;;;;;;15.57;9.93;;;;;;;;;;5053339;28;20122;-82
2022/12/27 06:05:16;;;;;;;16.02;9.52;;;;;;;;;;5054316;28;20650;-83
2022/12/27 06:07:41;;;;;;;14.82;9.82;;;;;;;;;;5053843;28;20033;-82
2022/12/27 06:10:08;;;;;;;15.52;9.63;;;;;;;;;;5054846;28;20408;-82
2022/12/27 06:12:33;;;;;;;15.25;9.40;;;;;;;;;;5054217;28;20111;-82
2022/12/27 06:14:59;;;;;;;13.48;8.55;;;;;;;;;;5020209;28;20484;-83
2022/12/27 06:17:24;;;;;;;13.95;9.07;;;;;;;;;;5054075;28;20057;-82
2022/12/27 06:19:49;;;;;;;15.57;8.65;;;;;;;;;;5057305;28;20035;-83
2022/12/27 06:22:15;;;;;;;16.33;10.00;;;;;;;;;;5058849;28;20025;-82
2022/12/27 06:24:40;;;;;;;14.27;9.10;;;;;;;;;;5040976;28;20051;-83
2022/12/27 06:27:06;;;;;;;14.13;9.30;;;;;;;;;;5060785;28;20108;-82
2022/12/27 06:29:33;;;;;;;14.50;9.20;;;;;;;;;;5060533;28;20132;-82
2022/12/27 06:31:58;;;;;;;14.30;8.85;;;;;;;;;;5064950;28;20105;-82
2022/12/27 06:34:23;;;;;;;13.55;9.20;;;;;;;;;;5062365;28;20115;-82
2022/12/27 06:36:50;;;;;;;15.82;10.30;;;;;;;;;;5067225;28;20039;-82
2022/12/27 06:42:00;;;;;;;14.05;9.10;;;;;;;;;;5049311;28;20500;-82
2022/12/27 06:44:25;;;;;;;14.18;8.45;;;;;;;;;;5047826;28;20028;-82
2022/12/27 06:46:51;;;;;;;14.48;9.10;;;;;;;;;;5035074;28;20052;-82
2022/12/27 06:52:00;;;;;;;14.60;9.75;;;;;;;;;;5052227;28;20032;-82
2022/12/27 06:54:26;;;;;;;14.02;8.95;;;;;;;;;;5052395;28;20029;-82
2022/12/27 06:56:51;;;;;;;16.23;9.75;;;;;;;;;;5034711;28;20488;-82
2022/12/27 06:59:17;;;;;;;14.20;9.30;;;;;;;;;;5052823;28;20035;-81
2022/12/27 07:01:42;;;;;;;14.00;9.00;;;;;;;;;;5053115;28;20032;-83
2022/12/27 07:04:08;;;;;;;14.18;9.23;;;;;;;;;;5053112;28;20029;-83
2022/12/27 07:06:34;;;;;;;17.15;10.40;;;;;;;;;;5052686;28;20064;-83
2022/12/27 07:11:44;;;;;;;16.20;8.50;;;;;;;;;;5053445;28;20047;-82
2022/12/27 07:14:09;;;;;;;14.63;9.45;;;;;;;;;;5034066;28;20029;-83
2022/12/27 07:16:35;;;;;;;13.95;9.25;;;;;;;;;;5061430;28;20059;-82
2022/12/27 07:19:01;;;;;;;16.67;9.98;;;;;;;;;;5035176;28;20052;-82
2022/12/27 07:21:26;;;;;;;15.48;9.30;;;;;;;;;;5052395;28;20044;-82
2022/12/27 07:23:52;;;;;;;16.08;10.13;;;;;;;;;;5051709;28;20059;-83
2022/12/27 07:26:19;;;;;;;15.73;9.90;;;;;;;;;;5052110;28;20374;-81
2022/12/27 07:28:45;;;;;;;15.38;9.43;;;;;;;;;;5014529;28;20056;-83
2022/12/27 07:31:10;;;;;;;16.13;10.27;;;;;;;;;;5048892;28;20068;-82
2022/12/27 07:33:36;;;;;;;13.55;9.10;;;;;;;;;;5051761;28;20059;-83
2022/12/27 07:36:01;;;;;;;16.65;9.48;;;;;;;;;;5033508;28;20037;-83
2022/12/27 07:38:27;;;;;;;16.27;9.82;;;;;;;;;;5017732;28;20025;-83
2022/12/27 07:40:53;;;;;;;;;;;;;;;;;;5051667;28;20123;-81
2022/12/27 07:43:19;;;;;;;19.05;9.65;;;;;;;;;;5033733;28;20062;-83
2022/12/27 07:45:44;;;;;;;19.85;10.30;;;;;;;;;;5017123;28;20052;-82
2022/12/27 07:48:10;;;;;;;17.98;10.82;;;;;;;;;;5034900;28;20025;-83
2022/12/27 07:50:35;;;;;;;20.83;10.73;;;;;;;;;;5035875;28;20412;-83
2022/12/27 07:53:01;;;;;;;19.80;11.00;;;;;;;;;;5053255;28;20033;-84
2022/12/27 07:58:10;;;;;;;18.83;11.45;;;;;;;;;;5045234;28;20048;-83
2022/12/27 08:00:36;;;;;;;18.38;11.15;;;;;;;;;;5055409;28;20024;-83
2022/12/27 08:03:02;;;;;;;18.83;10.70;;;;;;;;;;5054850;28;20045;-82
2022/12/27 08:05:27;;;;;;;;;;;;;;;;;;5059964;28;20028;-83
2022/12/27 08:07:53;;;;;;;17.33;10.32;;;;;;;;;;5056954;28;19913;-84
2022/12/27 08:10:18;;;;;;;19.35;11.05;;;;;;;;;;5059571;28;20082;-82
2022/12/27 08:12:44;;;;;;;18.60;10.43;;;;;;;;;;5057778;28;20377;-82
2022/12/27 08:15:10;;;;;;;20.52;10.80;;;;;;;;;;5059783;28;20023;-83
2022/12/27 08:17:35;;;;;;;;;;;;;;;;;;5059293;28;20500;-82
2022/12/27 08:20:01;;;;;;;15.93;10.30;;;;;;;;;;5061731;28;19966;-81
2022/12/27 08:22:27;;;;;;;18.50;11.38;;;;;;;;;;5045112;28;20096;-82
2022/12/27 08:24:54;;;;;;;17.27;10.55;;;;;;;;;;5061558;28;20107;-83
2022/12/27 08:27:21;;;;;;;17.75;11.00;;;;;;;;;;5062454;28;20391;-82
2022/12/27 08:29:46;;;;;;;18.30;10.82;;;;;;;;;;5044197;28;20048;-83
2022/12/27 08:32:11;;;;;;;19.88;11.70;;;;;;;;;;5064059;28;20055;-83
2022/12/27 08:34:37;;;;;;;20.02;11.75;;;;;;;;;;5045737;28;20059;-83
2022/12/27 08:37:02;;;;;;;18.95;11.50;;;;;;;;;;5068141;28;20491;-82
2022/12/27 08:39:28;;;;;;;18.92;11.23;;;;;;;;;;5045211;28;20032;-82
2022/12/27 08:41:54;;;;;;;;;;;;;;;;;;5065895;28;20040;-82
2022/12/27 08:44:19;;;;;;;18.48;11.07;;;;;;;;;;5063678;28;20306;-83
2022/12/27 08:46:45;;;;;;;17.58;10.55;;;;;;;;;;5023782;28;20075;-82
2022/12/27 08:49:10;;;;;;;20.48;11.90;;;;;;;;;;5039504;28;20024;-82
2022/12/27 08:54:20;;;;;;;24.83;13.07;;;;;;;;;;5062855;28;20055;-85
2022/12/27 08:59:29;;;;;;;20.75;11.90;;;;;;;;;;5034153;28;20075;-84
2022/12/27 09:01:56;;;;;;;19.95;11.15;;;;;;;;;;5059890;28;20112;-82
2022/12/27 09:04:21;;;;;;;19.13;11.63;;;;;;;;;;5065237;28;20182;-82
2022/12/27 09:06:47;;;;;;;19.60;12.40;;;;;;;;;;5042017;28;20029;-84
2022/12/27 09:09:12;;;;;;;21.23;11.90;;;;;;;;;;5065035;28;20403;-83
2022/12/27 09:11:38;;;;;;;22.17;13.07;;;;;;;;;;5062667;28;20481;-83
2022/12/27 09:14:03;;;;;;;22.23;12.50;;;;;;;;;;5051910;28;20503;-84
2022/12/27 09:16:29;;;;;;;20.67;12.43;;;;;;;;;;5045731;28;20087;-83
2022/12/27 09:18:55;;;;;;;20.00;13.02;;;;;;;;;;5068549;28;20524;-83
2022/12/27 09:21:21;;;;;;;;;;;;;;;;;;5066465;28;20155;-83
2022/12/27 09:23:46;;;;;;;23.60;13.32;;;;;;;;;;5050364;28;20504;-83
2022/12/27 09:26:12;;;;;;;20.67;13.25;;;;;;;;;;5047753;28;20379;-82
2022/12/27 09:28:38;;;;;;;20.50;12.27;;;;;;;;;;5050386;28;20033;-82
2022/12/27 09:31:04;;;;;;;20.92;12.50;;;;;;;;;;5046397;28;20025;-82
2022/12/27 09:33:29;;;;;;;22.20;12.65;;;;;;;;;;5050314;28;20408;-83
2022/12/27 09:38:45;;;;;;;23.45;12.57;;;;;;;;;;5019660;28;20038;-83
2022/12/27 09:41:17;;;;;;;23.80;13.93;;;;;;;;;;5054175;28;20074;-83
2022/12/27 09:43:42;;;;;;;21.10;12.73;;;;;;;;;;5020311;28;20049;-83
2022/12/27 09:46:12;;;;;;;20.40;11.80;;;;;;;;;;5055006;28;20044;-82
2022/12/27 09:48:38;;;;;;;20.02;12.65;;;;;;;;;;5036966;28;20040;-83
2022/12/27 09:51:13;;;;;;;22.17;12.02;;;;;;;;;;5057521;28;20476;-84
2022/12/27 09:53:54;;;;;;;21.70;12.65;;;;;;;;;;5043252;28;20123;-83
2022/12/27 09:56:24;;;;;;;20.83;13.10;;;;;;;;;;5058037;28;20050;-83
2022/12/27 09:58:50;;;;;;;21.55;12.98;;;;;;;;;;5030732;28;20037;-82
2022/12/27 10:01:15;;;;;;;;;;;;;;;;;;5049519;28;20709;-82
2022/12/27 10:03:41;;;;;;;20.20;11.38;;;;;;;;;;5065998;28;19918;-82
2022/12/27 10:06:25;;;;;;;20.38;12.05;;;;;;;;;;5042774;28;20110;-82
2022/12/27 10:09:34;;;;;;;21.88;12.02;;;;;;;;;;5042087;28;20044;-82
2022/12/27 10:11:59;;;;;;;22.50;13.30;;;;;;;;;;5060889;28;20104;-84
2022/12/27 10:14:43;;;;;;;21.40;12.32;;;;;;;;;;5057635;28;20111;-82
2022/12/27 10:17:24;;;;;;;22.05;12.45;;;;;;;;;;5028379;28;20510;-83
2022/12/27 10:20:03;;;;;;;20.05;11.93;;;;;;;;;;5031288;28;20044;-84
2022/12/27 10:22:32;;;;;;;20.90;11.38;;;;;;;;;;5052510;28;20036;-84
2022/12/27 10:24:58;;;;;;;21.20;11.70;;;;;;;;;;5034945;28;20028;-83
2022/12/27 10:27:24;;;;;;;24.33;13.65;;;;;;;;;;5034953;28;20400;-83
2022/12/27 10:29:53;;;;;;;20.65;12.48;;;;;;;;;;5017798;28;20025;-83
2022/12/27 10:32:19;;;;;;;21.17;12.40;;;;;;;;;;5052725;28;20029;-82
2022/12/27 10:34:44;;;;;;;20.88;12.90;;;;;;;;;;5034281;28;20025;-83
2022/12/27 10:37:14;;;;;;;24.05;12.98;;;;;;;;;;5043520;28;20115;-83
2022/12/27 10:39:39;;;;;;;20.38;12.38;;;;;;;;;;5049272;28;20515;-83
2022/12/27 10:42:14;;;;;;;22.13;12.82;;;;;;;;;;5066140;28;20032;-83
2022/12/27 10:50:10;;;;;;;20.25;11.85;;;;;;;;;;5035785;28;20029;-82
2022/12/27 10:52:36;;;;;;;21.63;11.38;;;;;;;;;;5037680;28;20055;-83
2022/12/27 10:55:02;;;;;;;19.23;11.80;;;;;;;;;;5035479;28;20071;-83
2022/12/27 10:57:32;;;;;;;20.00;11.75;;;;;;;;;;5054253;28;20522;-83
2022/12/27 11:00:12;;;;;;;20.02;11.18;;;;;;;;;;5034995;28;20033;-82
2022/12/27 11:02:56;;;;;;;20.17;12.25;;;;;;;;;;5035586;28;20037;-82
2022/12/27 11:05:23;;;;;;;20.13;10.90;;;;;;;;;;5054234;28;20339;-82
2022/12/27 11:07:48;;;;;;;19.25;10.63;;;;;;;;;;5062533;28;20028;-82
2022/12/27 11:10:24;;;;;;;21.60;12.95;;;;;;;;;;5038844;28;20090;-82
2022/12/27 11:13:00;;;;;;;20.10;11.93;;;;;;;;;;5035254;28;20515;-84
2022/12/27 11:15:26;;;;;;;18.67;10.30;;;;;;;;;;5034571;28;20029;-83
2022/12/27 11:17:52;;;;;;;17.55;10.40;;;;;;;;;;5035906;28;20060;-83
2022/12/27 11:20:18;;;;;;;19.95;11.73;;;;;;;;;;5023219;28;20036;-83
2022/12/27 11:22:49;;;;;;;19.30;11.27;;;;;;;;;;5061348;28;20037;-83
2022/12/27 11:25:15;;;;;;;18.38;10.75;;;;;;;;;;5036128;28;20515;-82
2022/12/27 11:27:43;;;;;;;19.23;10.70;;;;;;;;;;5016774;28;20060;-83
2022/12/27 11:30:19;;;;;;;18.67;11.02;;;;;;;;;;5052443;28;20116;-83
2022/12/27 11:32:44;;;;;;;17.50;10.68;;;;;;;;;;5055329;28;20037;-83
2022/12/27 11:35:14;;;;;;;19.10;10.77;;;;;;;;;;5036764;28;20028;-82
2022/12/27 11:37:39;;;;;;;17.83;10.40;;;;;;;;;;5021943;28;20402;-83
2022/12/27 11:40:24;;;;;;;17.42;9.88;;;;;;;;;;5036447;28;20031;-83
2022/12/27 11:42:55;;;;;;;16.25;9.75;;;;;;;;;;5039882;28;20040;-84
2022/12/27 11:45:22;;;;;;;18.13;9.63;;;;;;;;;;5036350;28;20044;-84
2022/12/27 11:47:51;;;;;;;15.70;10.00;;;;;;;;;;5016865;28;20075;-83
2022/12/27 11:50:26;;;;;;;16.48;9.57;;;;;;;;;;5051335;28;20036;-83
2022/12/27 11:52:54;;;;;;;16.23;10.20;;;;;;;;;;5053402;28;20048;-83
2022/12/27 11:55:20;;;;;;;17.48;10.13;;;;;;;;;;5051852;28;20025;-82
2022/12/27 11:57:55;;;;;;;15.85;9.00;;;;;;;;;;5056899;28;20032;-82
2022/12/27 12:03:14;;;;;;;14.65;8.65;;;;;;;;;;5039883;28;20040;-83
2022/12/27 12:05:58;;;;;;;15.88;8.70;;;;;;;;;;5040908;28;20060;-82
2022/12/27 12:08:38;;;;;;;14.88;9.05;;;;;;;;;;5056850;28;20029;-83
2022/12/27 12:11:10;;;;;;;13.38;8.45;;;;;;;;;;5037261;28;20110;-83
2022/12/27 12:17:07;;;;;;;15.75;8.45;;;;;;;;;;4969876;28;20054;-83
2022/12/27 12:19:38;;;;;;;15.77;8.98;;;;;;;;;;4963929;28;20507;-82
2022/12/27 12:22:22;;;;;;;13.77;8.30;;;;;;;;;;5021038;28;20033;-82
2022/12/27 12:24:48;;;;;;;12.68;7.03;;;;;;;;;;5033785;28;20028;-83
2022/12/27 12:27:36;;;;;;;14.95;8.50;;;;;;;;;;5036455;28;20485;-82
2022/12/27 12:30:20;;;;;;;13.25;7.38;;;;;;;;;;5017100;28;20091;-83
2022/12/27 12:32:45;;;;;;;13.98;8.15;;;;;;;;;;5036363;28;20045;-82
2022/12/27 12:35:17;;;;;;;14.23;8.60;;;;;;;;;;5012876;28;20361;-82
2022/12/27 12:37:45;;;;;;;16.20;8.13;;;;;;;;;;5031219;28;20030;-82
2022/12/27 12:40:31;;;;;;;14.70;8.20;;;;;;;;;;5030432;28;20155;-82
2022/12/27 12:43:11;;;;;;;14.07;8.55;;;;;;;;;;5029433;28;20401;-82
2022/12/27 12:46:15;;;;;;;14.40;7.93;;;;;;;;;;5023934;28;20120;-82
2022/12/27 12:48:46;;;;;;;13.27;8.13;;;;;;;;;;4982269;28;20039;-83
2022/12/27 12:51:18;;;;;;;13.63;7.85;;;;;;;;;;4972701;28;20034;-82
2022/12/27 12:53:43;;;;;;;14.57;7.90;;;;;;;;;;4989492;28;20041;-82
2022/12/27 12:56:31;;;;;;;18.58;8.70;;;;;;;;;;5030006;28;20368;-82
2022/12/27 12:59:00;;;;;;;17.65;8.05;;;;;;;;;;5028374;28;20461;-83
2022/12/27 13:01:40;;;;;;;13.57;7.97;;;;;;;;;;5012760;28;20399;-82
2022/12/27 13:04:14;;;;;;;13.02;7.25;;;;;;;;;;5030539;28;20404;-83
2022/12/27 13:07:15;;;;;;;16.80;7.55;;;;;;;;;;5030084;28;20037;-83
2022/12/27 13:09:53;;;;;;;12.77;6.97;;;;;;;;;;4970257;28;20039;-82
2022/12/27 13:12:22;;;;;;;13.38;7.68;;;;;;;;;;5025624;28;20393;-82
2022/12/27 13:17:51;;;;;;;11.15;6.80;;;;;;;;;;5040009;28;20053;-82
2022/12/27 13:20:36;;;;;;;11.68;6.78;;;;;;;;;;5055414;28;20041;-81
2022/12/27 13:23:06;;;;;;;15.02;8.50;;;;;;;;;;5037063;28;20069;-82
2022/12/27 13:25:49;;;;;;;16.33;9.60;;;;;;;;;;5037291;28;20072;-82
2022/12/27 13:28:35;;;;;;;13.20;7.03;;;;;;;;;;5037585;28;20029;-83
2022/12/27 13:31:19;;;;;;;11.40;6.70;;;;;;;;;;5037525;28;20461;-83
2022/12/27 13:34:03;;;;;;;12.32;6.95;;;;;;;;;;5054541;28;20064;-83
2022/12/27 13:36:35;;;;;;;14.57;7.95;;;;;;;;;;5036806;28;20036;-82
2022/12/27 13:39:03;;;;;;;16.00;8.07;;;;;;;;;;5038896;28;20028;-83
2022/12/27 13:41:48;;;;;;;14.48;7.38;;;;;;;;;;5053624;28;20555;-83
2022/12/27 13:44:19;;;;;;;15.10;7.18;;;;;;;;;;5058700;28;20082;-83
2022/12/27 13:46:51;;;;;;;13.70;7.18;;;;;;;;;;5052711;28;20033;-81
2022/12/27 13:49:26;;;;;;;13.23;7.28;;;;;;;;;;5056894;28;20484;-81
2022/12/27 13:51:51;;;;;;;12.30;6.95;;;;;;;;;;5054914;28;20112;-82
2022/12/27 13:54:23;;;;;;;12.15;6.93;;;;;;;;;;5040331;28;20162;-83
2022/12/27 13:57:04;;;;;;;14.77;7.55;;;;;;;;;;5055466;28;20117;-82
2022/12/27 13:59:35;;;;;;;18.17;7.93;;;;;;;;;;5036777;28;20039;-82
2022/12/27 14:02:13;;;;;;;14.63;7.55;;;;;;;;;;5023485;28;20069;-82
2022/12/27 14:07:30;;;;;;;16.17;7.72;;;;;;;;;;5053124;28;20072;-82
2022/12/27 14:10:15;;;;;;;17.45;7.75;;;;;;;;;;5039731;28;20403;-82
2022/12/27 14:12:51;;;;;;;15.98;7.88;;;;;;;;;;5057295;28;20032;-81
2022/12/27 14:15:17;;;;;;;11.52;6.22;;;;;;;;;;5042800;28;20402;-81
2022/12/27 14:17:43;;;;;;;;;;;;;;;;;;5039413;28;20500;-81
2022/12/27 14:23:04;;;;;;;18.20;7.93;;;;;;;;;;5052809;28;20384;-82
2022/12/27 14:25:33;;;;;;;15.05;7.22;;;;;;;;;;5020056;28;20400;-81
2022/12/27 14:28:04;;;;;;;14.65;7.32;;;;;;;;;;5056211;28;20214;-80
2022/12/27 14:33:31;;;;;;;12.35;6.60;;;;;;;;;;5060102;28;20047;-82
2022/12/27 14:36:15;;;;;;;13.52;6.38;;;;;;;;;;5039027;28;20079;-81
2022/12/27 14:38:41;;;;;;;13.85;6.95;;;;;;;;;;5056764;28;20508;-81
2022/12/27 14:41:16;;;;;;;16.67;7.55;;;;;;;;;;5060302;28;20073;-81
2022/12/27 14:44:00;;;;;;;11.48;6.75;;;;;;;;;;5058537;28;20049;-80
2022/12/27 14:46:38;;;;;;;13.00;6.47;;;;;;;;;;5046820;28;20641;-82
2022/12/27 14:49:07;;;;;;;13.30;7.13;;;;;;;;;;5033573;28;20033;-81
2022/12/27 14:51:38;;;;;;;17.15;7.95;;;;;;;;;;5034408;28;20028;-82
2022/12/27 14:54:19;;;;;;;15.55;7.53;;;;;;;;;;5052342;28;20044;-82
2022/12/27 14:56:51;;;;;;;20.60;7.85;;;;;;;;;;5059985;28;20067;-82
2022/12/27 14:59:19;;;;;;;15.18;7.43;;;;;;;;;;5040708;28;20036;-82
2022/12/27 15:01:54;;;;;;;10.88;6.40;;;;;;;;;;5061834;28;20107;-82
2022/12/27 15:04:25;;;;;;;14.25;6.70;;;;;;;;;;5059495;28;20558;-83
2022/12/27 15:06:58;;;;;;;12.25;5.95;;;;;;;;;;5057658;28;20037;-82
2022/12/27 15:09:28;;;;;;;10.15;5.90;;;;;;;;;;5034260;28;20041;-81
2022/12/27 15:11:55;;;;;;;10.95;6.32;;;;;;;;;;5047485;28;20036;-82
2022/12/27 15:14:25;;;;;;;13.13;6.85;;;;;;;;;;5025122;28;20131;-82
2022/12/27 15:17:02;;;;;;;13.95;7.72;;;;;;;;;;5046227;28;20048;-81
2022/12/27 15:19:47;;;;;;;14.23;6.28;;;;;;;;;;5040659;28;20075;-84
2022/12/27 15:22:31;;;;;;;19.02;9.65;;;;;;;;;;5061218;28;20480;-82
2022/12/27 15:25:14;;;;;;;13.68;7.13;;;;;;;;;;5053596;28;20032;-82
2022/12/27 15:27:39;;;;;;;10.65;6.13;;;;;;;;;;5046224;28;20035;-83
2022/12/27 15:30:25;;;;;;;14.35;7.03;;;;;;;;;;5068939;28;20029;-82
2022/12/27 15:32:53;;;;;;;14.65;6.35;;;;;;;;;;5049475;28;20032;-83
2022/12/27 15:35:38;;;;;;;15.30;8.27;;;;;;;;;;5043777;28;20056;-82
2022/12/27 15:38:05;;;;;;;20.48;9.55;;;;;;;;;;5052779;28;20126;-82
2022/12/27 15:40:31;;;;;;;16.55;8.18;;;;;;;;;;5033892;28;20064;-84
2022/12/27 15:43:14;;;;;;;16.40;8.35;;;;;;;;;;5060406;28;20056;-82
2022/12/27 15:45:46;;;;;;;21.35;8.18;;;;;;;;;;5060433;28;20028;-82
2022/12/27 15:48:22;;;;;;;13.15;6.85;;;;;;;;;;5033731;28;20029;-82
2022/12/27 15:51:08;;;;;;;13.15;6.97;;;;;;;;;;5018213;28;20036;-82
2022/12/27 15:53:54;;;;;;;11.18;5.50;;;;;;;;;;5051149;28;20076;-83
2022/12/27 15:56:22;;;;;;;11.07;6.28;;;;;;;;;;5051265;28;20043;-82
2022/12/27 15:59:08;;;;;;;13.10;6.57;;;;;;;;;;5034112;28;20446;-83
2022/12/27 16:01:33;;;;;;;13.82;6.18;;;;;;;;;;5010745;28;20187;-82
2022/12/27 16:04:00;;;;;;;12.50;6.13;;;;;;;;;;5035295;28;20617;-82
2022/12/27 16:06:49;;;;;;;17.33;6.25;;;;;;;;;;5049433;28;20032;-83
2022/12/27 16:09:23;;;;;;;12.60;6.88;;;;;;;;;;5027081;28;20064;-82
2022/12/27 16:11:55;;;;;;;11.82;6.82;;;;;;;;;;5050710;28;20518;-83
2022/12/27 16:14:21;;;;;;;11.98;6.75;;;;;;;;;;5051610;28;20458;-83
2022/12/27 16:16:50;;;;;;;11.00;7.10;;;;;;;;;;5015951;28;20049;-83
2022/12/27 16:19:17;;;;;;;12.23;6.95;;;;;;;;;;5051223;28;20404;-84
2022/12/27 16:21:43;;;;;;;17.38;7.47;;;;;;;;;;5034443;28;20021;-82
2022/12/27 16:24:10;;;;;;;35.50;7.50;;;;;;;;;;5018105;28;20062;-82
2022/12/27 16:26:36;;;;;;;13.77;7.28;;;;;;;;;;5035609;28;20021;-82
2022/12/27 16:29:06;;;;;;;13.25;7.07;;;;;;;;;;5034480;28;20132;-85
2022/12/27 16:31:32;;;;;;;12.68;7.20;;;;;;;;;;5053390;28;20029;-82
2022/12/27 16:34:16;;;;;;;12.63;7.25;;;;;;;;;;5053123;28;20083;-82
2022/12/27 16:36:42;;;;;;;15.20;8.00;;;;;;;;;;5028393;28;20492;-81
2022/12/27 16:41:54;;;;;;;;;;;;;;;;;;5052436;28;20072;-82
2022/12/27 16:44:23;;;;;;;12.20;7.30;;;;;;;;;;5041226;28;20376;-82
2022/12/27 16:49:45;;;;;;;13.07;8.07;;;;;;;;;;5050337;28;20045;-83
2022/12/27 16:52:16;;;;;;;12.10;6.90;;;;;;;;;;5051357;28;20040;-83
2022/12/27 16:54:48;;;;;;;12.88;7.03;;;;;;;;;;5051860;28;20124;-84
2022/12/27 16:57:20;;;;;;;13.07;7.00;;;;;;;;;;5046761;28;20037;-83
2022/12/27 17:00:02;;;;;;;13.38;7.00;;;;;;;;;;5028950;28;20048;-83
2022/12/27 17:02:44;;;;;;;10.38;6.53;;;;;;;;;;5034722;28;20052;-83
2022/12/27 17:05:13;;;;;;;10.40;6.85;;;;;;;;;;5052810;28;20063;-86
2022/12/27 17:07:56;;;;;;;10.93;6.60;;;;;;;;;;5053197;28;20029;-84
2022/12/27 17:10:41;;;;;;;12.65;7.57;;;;;;;;;;5039914;28;20029;-85
2022/12/27 17:13:19;;;;;;;13.13;7.35;;;;;;;;;;5043115;28;20539;-82
2022/12/27 17:16:07;;;;;;;11.57;7.70;;;;;;;;;;5053069;28;20492;-83
2022/12/27 17:18:32;;;;;;;12.02;7.90;;;;;;;;;;5040499;28;20565;-82
2022/12/27 17:21:00;;;;;;;12.25;8.20;;;;;;;;;;5041956;28;20049;-83
2022/12/27 17:23:25;;;;;;;12.55;8.23;;;;;;;;;;5039293;28;20047;-82
2022/12/27 17:25:53;;;;;;;12.80;7.05;;;;;;;;;;5055058;28;20037;-81
2022/12/27 17:31:10;;;;;;;13.93;7.38;;;;;;;;;;5040166;28;20041;-83
2022/12/27 17:33:55;;;;;;;12.23;6.65;;;;;;;;;;5053795;28;20067;-83
2022/12/27 17:36:41;;;;;;;11.60;6.45;;;;;;;;;;5037451;28;20041;-82
2022/12/27 17:39:27;;;;;;;11.55;7.10;;;;;;;;;;5018698;28;20118;-82